sensor_id;sensor_type;location;lat;lon;timestamp;temperature;humidity
56771;DHT22;42641;59.794;17.616;2023-06-14T00:02:16;16.40;84.40
56771;DHT22;42641;59.794;17.616;2023-06-14T00:04:42;16.50;83.50
56771;DHT22;42641;59.794;17.616;2023-06-14T00:07:09;16.50;82.80
56771;DHT22;42641;59.794;17.616;2023-06-14T00:09:35;16.60;81.80
56771;DHT22;42641;59.794;17.616;2023-06-14T00:12:02;16.70;81.60
56771;DHT22;42641;59.794;17.616;2023-06-14T00:14:29;16.70;81.90
56771;DHT22;42641;59.794;17.616;2023-06-14T00:16:55;16.80;82.40
56771;DHT22;42641;59.794;17.616;2023-06-14T00:19:25;16.80;83.40
56771;DHT22;42641;59.794;17.616;2023-06-14T00:21:52;16.80;85.00
56771;DHT22;42641;59.794;17.616;2023-06-14T00:24:19;16.90;85.60
56771;DHT22;42641;59.794;17.616;2023-06-14T00:26:47;16.90;87.50
56771;DHT22;42641;59.794;17.616;2023-06-14T00:29:14;16.90;87.60
56771;DHT22;42641;59.794;17.616;2023-06-14T00:31:40;16.90;87.90
56771;DHT22;42641;59.794;17.616;2023-06-14T00:34:07;17.00;87.90
56771;DHT22;42641;59.794;17.616;2023-06-14T00:36:33;17.00;88.60
56771;DHT22;42641;59.794;17.616;2023-06-14T00:39:00;17.00;89.40
56771;DHT22;42641;59.794;17.616;2023-06-14T00:41:26;17.00;89.40
56771;DHT22;42641;59.794;17.616;2023-06-14T00:43:53;17.00;90.40
56771;DHT22;42641;59.794;17.616;2023-06-14T00:46:21;17.00;90.50
56771;DHT22;42641;59.794;17.616;2023-06-14T00:48:48;17.00;90.30
56771;DHT22;42641;59.794;17.616;2023-06-14T00:51:16;17.00;90.70
56771;DHT22;42641;59.794;17.616;2023-06-14T00:53:43;17.00;91.00
56771;DHT22;42641;59.794;17.616;2023-06-14T00:56:14;17.00;91.10
56771;DHT22;42641;59.794;17.616;2023-06-14T00:58:41;17.00;91.50
56771;DHT22;42641;59.794;17.616;2023-06-14T01:01:09;17.10;91.80
56771;DHT22;42641;59.794;17.616;2023-06-14T01:03:36;17.10;92.00
56771;DHT22;42641;59.794;17.616;2023-06-14T01:06:18;17.10;92.00
56771;DHT22;42641;59.794;17.616;2023-06-14T01:12:13;17.20;92.90
56771;DHT22;42641;59.794;17.616;2023-06-14T01:14:41;17.20;93.10
56771;DHT22;42641;59.794;17.616;2023-06-14T01:17:08;17.20;93.50
56771;DHT22;42641;59.794;17.616;2023-06-14T01:19:42;17.10;94.20
56771;DHT22;42641;59.794;17.616;2023-06-14T01:22:09;17.10;94.50
56771;DHT22;42641;59.794;17.616;2023-06-14T01:24:36;17.00;94.80
56771;DHT22;42641;59.794;17.616;2023-06-14T01:27:05;17.00;95.10
56771;DHT22;42641;59.794;17.616;2023-06-14T01:29:33;17.00;95.70
56771;DHT22;42641;59.794;17.616;2023-06-14T01:32:02;17.10;95.40
56771;DHT22;42641;59.794;17.616;2023-06-14T01:34:31;17.10;95.50
56771;DHT22;42641;59.794;17.616;2023-06-14T01:36:58;17.00;95.60
56771;DHT22;42641;59.794;17.616;2023-06-14T01:39:26;17.00;95.80
56771;DHT22;42641;59.794;17.616;2023-06-14T01:41:55;17.00;95.90
56771;DHT22;42641;59.794;17.616;2023-06-14T01:44:23;17.10;95.90
56771;DHT22;42641;59.794;17.616;2023-06-14T01:46:51;17.10;96.00
56771;DHT22;42641;59.794;17.616;2023-06-14T01:49:17;17.10;96.10
56771;DHT22;42641;59.794;17.616;2023-06-14T01:51:44;17.10;96.40
56771;DHT22;42641;59.794;17.616;2023-06-14T01:54:10;17.10;96.30
56771;DHT22;42641;59.794;17.616;2023-06-14T01:56:38;17.10;96.60
56771;DHT22;42641;59.794;17.616;2023-06-14T01:59:05;17.10;96.50
56771;DHT22;42641;59.794;17.616;2023-06-14T02:01:32;17.10;96.30
56771;DHT22;42641;59.794;17.616;2023-06-14T02:04:01;17.00;96.40
56771;DHT22;42641;59.794;17.616;2023-06-14T02:06:28;17.10;96.50
56771;DHT22;42641;59.794;17.616;2023-06-14T02:08:54;17.00;96.90
56771;DHT22;42641;59.794;17.616;2023-06-14T02:11:21;16.90;97.00
56771;DHT22;42641;59.794;17.616;2023-06-14T02:13:47;16.90;97.20
56771;DHT22;42641;59.794;17.616;2023-06-14T02:16:14;16.90;97.30
56771;DHT22;42641;59.794;17.616;2023-06-14T02:18:40;16.90;97.00
56771;DHT22;42641;59.794;17.616;2023-06-14T02:21:07;16.80;96.90
56771;DHT22;42641;59.794;17.616;2023-06-14T02:23:33;16.80;97.50
56771;DHT22;42641;59.794;17.616;2023-06-14T02:26:00;16.80;97.60
56771;DHT22;42641;59.794;17.616;2023-06-14T02:28:26;16.80;97.80
56771;DHT22;42641;59.794;17.616;2023-06-14T02:30:53;16.80;96.70
56771;DHT22;42641;59.794;17.616;2023-06-14T02:33:23;16.80;96.50
56771;DHT22;42641;59.794;17.616;2023-06-14T02:35:49;16.70;97.00
56771;DHT22;42641;59.794;17.616;2023-06-14T02:38:16;16.70;97.50
56771;DHT22;42641;59.794;17.616;2023-06-14T02:40:42;16.70;97.10
56771;DHT22;42641;59.794;17.616;2023-06-14T02:43:09;16.70;96.50
56771;DHT22;42641;59.794;17.616;2023-06-14T02:45:35;16.70;96.30
56771;DHT22;42641;59.794;17.616;2023-06-14T02:48:02;16.70;95.40
56771;DHT22;42641;59.794;17.616;2023-06-14T02:50:28;16.70;95.90
56771;DHT22;42641;59.794;17.616;2023-06-14T02:52:56;16.70;96.40
56771;DHT22;42641;59.794;17.616;2023-06-14T02:55:23;16.70;95.80
56771;DHT22;42641;59.794;17.616;2023-06-14T02:57:49;16.70;95.10
56771;DHT22;42641;59.794;17.616;2023-06-14T03:00:17;16.70;95.20
56771;DHT22;42641;59.794;17.616;2023-06-14T03:02:46;16.70;95.50
56771;DHT22;42641;59.794;17.616;2023-06-14T03:05:13;16.80;95.80
56771;DHT22;42641;59.794;17.616;2023-06-14T03:07:41;16.70;96.00
56771;DHT22;42641;59.794;17.616;2023-06-14T03:10:11;16.70;96.20
56771;DHT22;42641;59.794;17.616;2023-06-14T03:12:41;16.80;96.20
56771;DHT22;42641;59.794;17.616;2023-06-14T03:15:09;16.80;96.20
56771;DHT22;42641;59.794;17.616;2023-06-14T03:17:40;16.80;96.50
56771;DHT22;42641;59.794;17.616;2023-06-14T03:20:08;16.90;96.70
56771;DHT22;42641;59.794;17.616;2023-06-14T03:22:35;16.90;96.70
56771;DHT22;42641;59.794;17.616;2023-06-14T03:25:01;16.90;96.90
56771;DHT22;42641;59.794;17.616;2023-06-14T03:27:32;17.00;96.80
56771;DHT22;42641;59.794;17.616;2023-06-14T03:30:00;17.00;96.60
56771;DHT22;42641;59.794;17.616;2023-06-14T03:32:27;17.10;96.40
56771;DHT22;42641;59.794;17.616;2023-06-14T03:34:53;17.10;96.40
56771;DHT22;42641;59.794;17.616;2023-06-14T03:37:23;17.20;96.70
56771;DHT22;42641;59.794;17.616;2023-06-14T03:39:49;17.30;96.40
56771;DHT22;42641;59.794;17.616;2023-06-14T03:42:20;17.30;96.80
56771;DHT22;42641;59.794;17.616;2023-06-14T03:44:48;17.30;96.40
56771;DHT22;42641;59.794;17.616;2023-06-14T03:47:15;17.40;96.50
56771;DHT22;42641;59.794;17.616;2023-06-14T03:49:42;17.50;97.40
56771;DHT22;42641;59.794;17.616;2023-06-14T03:52:08;17.50;97.50
56771;DHT22;42641;59.794;17.616;2023-06-14T03:54:37;17.50;98.80
56771;DHT22;42641;59.794;17.616;2023-06-14T03:57:04;17.40;99.00
56771;DHT22;42641;59.794;17.616;2023-06-14T03:59:31;17.40;98.00
56771;DHT22;42641;59.794;17.616;2023-06-14T04:01:58;17.50;97.20
56771;DHT22;42641;59.794;17.616;2023-06-14T04:04:24;17.60;97.40
56771;DHT22;42641;59.794;17.616;2023-06-14T04:06:56;17.60;97.50
56771;DHT22;42641;59.794;17.616;2023-06-14T04:09:24;17.70;97.20
56771;DHT22;42641;59.794;17.616;2023-06-14T04:11:52;17.80;96.50
56771;DHT22;42641;59.794;17.616;2023-06-14T04:14:19;17.90;95.70
56771;DHT22;42641;59.794;17.616;2023-06-14T04:16:47;18.00;94.90
56771;DHT22;42641;59.794;17.616;2023-06-14T04:19:16;18.10;95.50
56771;DHT22;42641;59.794;17.616;2023-06-14T04:21:42;18.30;95.50
56771;DHT22;42641;59.794;17.616;2023-06-14T04:24:09;18.40;94.60
56771;DHT22;42641;59.794;17.616;2023-06-14T04:26:44;18.50;93.90
56771;DHT22;42641;59.794;17.616;2023-06-14T04:29:12;18.60;94.20
56771;DHT22;42641;59.794;17.616;2023-06-14T04:31:45;18.70;94.90
56771;DHT22;42641;59.794;17.616;2023-06-14T04:34:13;18.80;94.40
56771;DHT22;42641;59.794;17.616;2023-06-14T04:36:46;18.80;93.40
56771;DHT22;42641;59.794;17.616;2023-06-14T04:39:16;18.90;93.20
56771;DHT22;42641;59.794;17.616;2023-06-14T04:41:50;18.90;92.30
56771;DHT22;42641;59.794;17.616;2023-06-14T04:44:19;18.90;91.90
56771;DHT22;42641;59.794;17.616;2023-06-14T04:46:48;19.10;93.20
56771;DHT22;42641;59.794;17.616;2023-06-14T04:49:19;19.20;93.00
56771;DHT22;42641;59.794;17.616;2023-06-14T04:51:45;19.30;91.70
56771;DHT22;42641;59.794;17.616;2023-06-14T04:54:13;19.50;91.40
56771;DHT22;42641;59.794;17.616;2023-06-14T04:56:43;19.60;91.60
56771;DHT22;42641;59.794;17.616;2023-06-14T04:59:12;19.70;91.60
56771;DHT22;42641;59.794;17.616;2023-06-14T05:01:39;19.90;92.00
56771;DHT22;42641;59.794;17.616;2023-06-14T05:04:05;20.00;91.70
56771;DHT22;42641;59.794;17.616;2023-06-14T05:06:32;20.10;91.70
56771;DHT22;42641;59.794;17.616;2023-06-14T05:08:59;20.10;92.10
56771;DHT22;42641;59.794;17.616;2023-06-14T05:11:25;20.20;91.60
56771;DHT22;42641;59.794;17.616;2023-06-14T05:13:53;20.30;90.30
56771;DHT22;42641;59.794;17.616;2023-06-14T05:16:19;20.30;90.90
56771;DHT22;42641;59.794;17.616;2023-06-14T05:18:49;20.30;90.50
56771;DHT22;42641;59.794;17.616;2023-06-14T05:21:17;20.30;90.60
56771;DHT22;42641;59.794;17.616;2023-06-14T05:23:45;20.50;91.00
56771;DHT22;42641;59.794;17.616;2023-06-14T05:26:11;20.70;90.20
56771;DHT22;42641;59.794;17.616;2023-06-14T05:28:38;20.80;89.70
56771;DHT22;42641;59.794;17.616;2023-06-14T05:31:04;20.90;90.00
56771;DHT22;42641;59.794;17.616;2023-06-14T05:33:31;21.10;88.90
56771;DHT22;42641;59.794;17.616;2023-06-14T05:35:57;21.30;88.40
56771;DHT22;42641;59.794;17.616;2023-06-14T05:38:23;21.50;86.70
56771;DHT22;42641;59.794;17.616;2023-06-14T05:40:50;21.60;87.30
56771;DHT22;42641;59.794;17.616;2023-06-14T05:43:16;21.80;88.30
56771;DHT22;42641;59.794;17.616;2023-06-14T05:45:43;21.90;86.00
56771;DHT22;42641;59.794;17.616;2023-06-14T05:48:09;22.00;84.50
56771;DHT22;42641;59.794;17.616;2023-06-14T05:50:36;22.10;84.90
56771;DHT22;42641;59.794;17.616;2023-06-14T05:53:02;22.20;83.00
56771;DHT22;42641;59.794;17.616;2023-06-14T05:55:28;22.30;82.90
56771;DHT22;42641;59.794;17.616;2023-06-14T05:57:55;22.40;83.70
56771;DHT22;42641;59.794;17.616;2023-06-14T06:00:21;22.50;83.10
56771;DHT22;42641;59.794;17.616;2023-06-14T06:02:48;22.60;82.50
56771;DHT22;42641;59.794;17.616;2023-06-14T06:05:15;22.70;82.40
56771;DHT22;42641;59.794;17.616;2023-06-14T06:07:41;22.90;82.60
56771;DHT22;42641;59.794;17.616;2023-06-14T06:10:10;22.90;80.50
56771;DHT22;42641;59.794;17.616;2023-06-14T06:12:38;23.00;82.50
56771;DHT22;42641;59.794;17.616;2023-06-14T06:15:04;23.10;81.60
56771;DHT22;42641;59.794;17.616;2023-06-14T06:17:32;23.20;81.50
56771;DHT22;42641;59.794;17.616;2023-06-14T06:19:58;23.50;81.30
56771;DHT22;42641;59.794;17.616;2023-06-14T06:22:25;23.70;81.90
56771;DHT22;42641;59.794;17.616;2023-06-14T06:24:51;23.70;80.20
56771;DHT22;42641;59.794;17.616;2023-06-14T06:27:18;23.80;79.50
56771;DHT22;42641;59.794;17.616;2023-06-14T06:29:45;23.90;77.60
56771;DHT22;42641;59.794;17.616;2023-06-14T06:32:11;24.10;77.90
56771;DHT22;42641;59.794;17.616;2023-06-14T06:34:38;24.20;79.00
56771;DHT22;42641;59.794;17.616;2023-06-14T06:37:04;24.30;76.90
56771;DHT22;42641;59.794;17.616;2023-06-14T06:39:32;24.40;74.90
56771;DHT22;42641;59.794;17.616;2023-06-14T06:41:58;24.50;75.00
56771;DHT22;42641;59.794;17.616;2023-06-14T06:44:33;24.60;78.50
56771;DHT22;42641;59.794;17.616;2023-06-14T06:47:00;24.70;75.30
56771;DHT22;42641;59.794;17.616;2023-06-14T06:49:26;24.70;75.50
56771;DHT22;42641;59.794;17.616;2023-06-14T06:52:05;24.70;75.40
56771;DHT22;42641;59.794;17.616;2023-06-14T06:54:33;24.70;75.90
56771;DHT22;42641;59.794;17.616;2023-06-14T06:56:59;24.70;75.90
56771;DHT22;42641;59.794;17.616;2023-06-14T06:59:27;24.60;76.40
56771;DHT22;42641;59.794;17.616;2023-06-14T07:01:54;24.70;76.00
56771;DHT22;42641;59.794;17.616;2023-06-14T07:04:20;24.80;75.80
56771;DHT22;42641;59.794;17.616;2023-06-14T07:06:47;25.00;76.30
56771;DHT22;42641;59.794;17.616;2023-06-14T07:09:14;25.20;74.40
56771;DHT22;42641;59.794;17.616;2023-06-14T07:11:45;25.30;71.80
56771;DHT22;42641;59.794;17.616;2023-06-14T07:14:11;25.40;73.70
56771;DHT22;42641;59.794;17.616;2023-06-14T07:16:38;25.50;72.30
56771;DHT22;42641;59.794;17.616;2023-06-14T07:19:05;25.50;72.30
56771;DHT22;42641;59.794;17.616;2023-06-14T07:21:31;25.60;73.10
56771;DHT22;42641;59.794;17.616;2023-06-14T07:23:58;25.80;73.50
56771;DHT22;42641;59.794;17.616;2023-06-14T07:26:24;26.00;70.40
56771;DHT22;42641;59.794;17.616;2023-06-14T07:28:51;25.90;70.40
56771;DHT22;42641;59.794;17.616;2023-06-14T07:31:18;26.10;76.00
56771;DHT22;42641;59.794;17.616;2023-06-14T07:33:45;26.10;72.30
56771;DHT22;42641;59.794;17.616;2023-06-14T07:36:12;26.20;70.60
56771;DHT22;42641;59.794;17.616;2023-06-14T07:38:38;26.30;70.90
56771;DHT22;42641;59.794;17.616;2023-06-14T07:41:07;26.30;68.50
56771;DHT22;42641;59.794;17.616;2023-06-14T07:43:33;26.30;68.20
56771;DHT22;42641;59.794;17.616;2023-06-14T07:45:59;26.20;68.30
56771;DHT22;42641;59.794;17.616;2023-06-14T07:48:26;26.00;69.00
56771;DHT22;42641;59.794;17.616;2023-06-14T07:50:52;26.20;68.60
56771;DHT22;42641;59.794;17.616;2023-06-14T07:53:19;26.40;66.50
56771;DHT22;42641;59.794;17.616;2023-06-14T07:55:45;26.70;66.90
56771;DHT22;42641;59.794;17.616;2023-06-14T07:58:13;27.00;66.80
56771;DHT22;42641;59.794;17.616;2023-06-14T08:00:40;27.20;65.10
56771;DHT22;42641;59.794;17.616;2023-06-14T08:03:07;27.40;66.20
56771;DHT22;42641;59.794;17.616;2023-06-14T08:05:33;27.60;64.10
56771;DHT22;42641;59.794;17.616;2023-06-14T08:08:01;27.70;64.50
56771;DHT22;42641;59.794;17.616;2023-06-14T08:10:27;27.80;64.80
56771;DHT22;42641;59.794;17.616;2023-06-14T08:12:54;28.20;65.50
56771;DHT22;42641;59.794;17.616;2023-06-14T08:15:20;28.40;63.40
56771;DHT22;42641;59.794;17.616;2023-06-14T08:17:47;28.50;63.10
56771;DHT22;42641;59.794;17.616;2023-06-14T08:20:14;28.70;62.10
56771;DHT22;42641;59.794;17.616;2023-06-14T08:22:43;28.80;60.60
56771;DHT22;42641;59.794;17.616;2023-06-14T08:25:09;28.90;63.70
56771;DHT22;42641;59.794;17.616;2023-06-14T08:27:38;29.00;61.00
56771;DHT22;42641;59.794;17.616;2023-06-14T08:30:05;29.00;60.90
56771;DHT22;42641;59.794;17.616;2023-06-14T08:32:31;29.00;63.80
56771;DHT22;42641;59.794;17.616;2023-06-14T08:34:58;28.70;60.50
56771;DHT22;42641;59.794;17.616;2023-06-14T08:37:24;28.40;61.00
56771;DHT22;42641;59.794;17.616;2023-06-14T08:39:53;28.30;61.30
56771;DHT22;42641;59.794;17.616;2023-06-14T08:42:21;28.40;61.80
56771;DHT22;42641;59.794;17.616;2023-06-14T08:44:50;28.50;62.10
56771;DHT22;42641;59.794;17.616;2023-06-14T08:47:17;28.60;61.60
56771;DHT22;42641;59.794;17.616;2023-06-14T08:49:47;28.50;59.50
56771;DHT22;42641;59.794;17.616;2023-06-14T08:52:16;28.20;60.00
56771;DHT22;42641;59.794;17.616;2023-06-14T08:54:46;28.20;61.00
56771;DHT22;42641;59.794;17.616;2023-06-14T08:57:15;28.20;61.30
56771;DHT22;42641;59.794;17.616;2023-06-14T08:59:46;28.40;60.20
56771;DHT22;42641;59.794;17.616;2023-06-14T09:02:15;28.60;59.30
56771;DHT22;42641;59.794;17.616;2023-06-14T09:04:45;28.70;60.90
56771;DHT22;42641;59.794;17.616;2023-06-14T09:07:12;29.00;59.20
56771;DHT22;42641;59.794;17.616;2023-06-14T09:09:40;29.00;60.30
56771;DHT22;42641;59.794;17.616;2023-06-14T09:12:10;29.10;60.30
56771;DHT22;42641;59.794;17.616;2023-06-14T09:14:37;29.20;58.90
56771;DHT22;42641;59.794;17.616;2023-06-14T09:17:06;29.20;57.80
56771;DHT22;42641;59.794;17.616;2023-06-14T09:19:33;29.30;57.50
56771;DHT22;42641;59.794;17.616;2023-06-14T09:22:01;29.40;56.50
56771;DHT22;42641;59.794;17.616;2023-06-14T09:24:28;29.60;57.40
56771;DHT22;42641;59.794;17.616;2023-06-14T09:26:55;29.60;56.20
56771;DHT22;42641;59.794;17.616;2023-06-14T09:29:21;29.90;57.70
56771;DHT22;42641;59.794;17.616;2023-06-14T09:31:48;30.10;55.40
56771;DHT22;42641;59.794;17.616;2023-06-14T09:34:16;30.10;55.20
56771;DHT22;42641;59.794;17.616;2023-06-14T09:36:44;30.30;56.20
56771;DHT22;42641;59.794;17.616;2023-06-14T09:39:11;30.50;55.40
56771;DHT22;42641;59.794;17.616;2023-06-14T09:41:43;30.50;57.10
56771;DHT22;42641;59.794;17.616;2023-06-14T09:44:10;30.80;55.20
56771;DHT22;42641;59.794;17.616;2023-06-14T09:46:38;30.60;54.30
56771;DHT22;42641;59.794;17.616;2023-06-14T09:49:05;30.60;54.20
56771;DHT22;42641;59.794;17.616;2023-06-14T09:51:32;30.60;54.50
56771;DHT22;42641;59.794;17.616;2023-06-14T09:54:01;30.80;55.00
56771;DHT22;42641;59.794;17.616;2023-06-14T09:56:42;31.30;53.70
56771;DHT22;42641;59.794;17.616;2023-06-14T09:59:12;31.40;54.20
56771;DHT22;42641;59.794;17.616;2023-06-14T10:01:42;31.40;54.30
56771;DHT22;42641;59.794;17.616;2023-06-14T10:04:10;31.00;54.60
56771;DHT22;42641;59.794;17.616;2023-06-14T10:06:39;30.70;54.90
56771;DHT22;42641;59.794;17.616;2023-06-14T10:09:08;30.50;55.10
56771;DHT22;42641;59.794;17.616;2023-06-14T10:11:36;30.30;55.60
56771;DHT22;42641;59.794;17.616;2023-06-14T10:14:05;30.30;56.20
56771;DHT22;42641;59.794;17.616;2023-06-14T10:19:28;30.10;55.90
56771;DHT22;42641;59.794;17.616;2023-06-14T10:24:32;30.20;55.50
56771;DHT22;42641;59.794;17.616;2023-06-14T10:27:00;30.40;56.00
56771;DHT22;42641;59.794;17.616;2023-06-14T10:29:28;30.60;58.00
56771;DHT22;42641;59.794;17.616;2023-06-14T10:31:59;30.60;56.80
56771;DHT22;42641;59.794;17.616;2023-06-14T10:34:28;30.60;54.90
56771;DHT22;42641;59.794;17.616;2023-06-14T10:39:31;30.80;54.00
56771;DHT22;42641;59.794;17.616;2023-06-14T10:41:58;30.50;54.90
56771;DHT22;42641;59.794;17.616;2023-06-14T10:44:31;30.40;53.70
56771;DHT22;42641;59.794;17.616;2023-06-14T10:47:00;30.40;54.20
56771;DHT22;42641;59.794;17.616;2023-06-14T10:49:44;30.60;55.50
56771;DHT22;42641;59.794;17.616;2023-06-14T10:52:13;30.50;54.60
56771;DHT22;42641;59.794;17.616;2023-06-14T10:55:07;30.50;55.60
56771;DHT22;42641;59.794;17.616;2023-06-14T10:57:51;31.20;56.20
56771;DHT22;42641;59.794;17.616;2023-06-14T11:00:20;31.50;52.70
56771;DHT22;42641;59.794;17.616;2023-06-14T11:05:48;31.40;53.20
56771;DHT22;42641;59.794;17.616;2023-06-14T11:11:08;31.40;55.70
56771;DHT22;42641;59.794;17.616;2023-06-14T11:13:41;31.70;53.50
56771;DHT22;42641;59.794;17.616;2023-06-14T11:16:18;31.40;52.90
56771;DHT22;42641;59.794;17.616;2023-06-14T11:18:48;31.20;53.80
56771;DHT22;42641;59.794;17.616;2023-06-14T11:21:16;31.30;53.50
56771;DHT22;42641;59.794;17.616;2023-06-14T11:23:51;31.30;53.00
56771;DHT22;42641;59.794;17.616;2023-06-14T11:26:28;30.90;52.80
56771;DHT22;42641;59.794;17.616;2023-06-14T11:28:56;30.50;53.30
56771;DHT22;42641;59.794;17.616;2023-06-14T11:31:24;30.20;54.10
56771;DHT22;42641;59.794;17.616;2023-06-14T11:33:51;30.10;53.30
56771;DHT22;42641;59.794;17.616;2023-06-14T11:36:19;30.10;53.70
56771;DHT22;42641;59.794;17.616;2023-06-14T11:38:45;30.20;56.10
56771;DHT22;42641;59.794;17.616;2023-06-14T11:41:12;30.10;54.70
56771;DHT22;42641;59.794;17.616;2023-06-14T11:43:40;30.10;55.30
56771;DHT22;42641;59.794;17.616;2023-06-14T11:46:13;30.20;55.80
56771;DHT22;42641;59.794;17.616;2023-06-14T11:48:42;30.00;54.40
56771;DHT22;42641;59.794;17.616;2023-06-14T11:51:09;29.80;55.30
56771;DHT22;42641;59.794;17.616;2023-06-14T11:53:35;29.90;55.00
56771;DHT22;42641;59.794;17.616;2023-06-14T11:56:02;30.60;57.20
56771;DHT22;42641;59.794;17.616;2023-06-14T11:58:29;30.90;54.60
56771;DHT22;42641;59.794;17.616;2023-06-14T12:00:56;30.90;54.00
56771;DHT22;42641;59.794;17.616;2023-06-14T12:03:23;31.90;53.60
56771;DHT22;42641;59.794;17.616;2023-06-14T12:06:03;33.40;54.00
56771;DHT22;42641;59.794;17.616;2023-06-14T12:08:34;33.90;51.30
56771;DHT22;42641;59.794;17.616;2023-06-14T12:11:06;34.30;50.30
56771;DHT22;42641;59.794;17.616;2023-06-14T12:13:34;35.10;48.30
56771;DHT22;42641;59.794;17.616;2023-06-14T12:16:02;35.90;47.60
56771;DHT22;42641;59.794;17.616;2023-06-14T12:18:36;36.70;46.70
56771;DHT22;42641;59.794;17.616;2023-06-14T12:21:04;36.80;46.50
56771;DHT22;42641;59.794;17.616;2023-06-14T12:26:09;35.40;47.50
56771;DHT22;42641;59.794;17.616;2023-06-14T12:28:35;34.40;48.50
56771;DHT22;42641;59.794;17.616;2023-06-14T12:31:02;33.50;49.70
56771;DHT22;42641;59.794;17.616;2023-06-14T12:33:29;32.80;51.70
56771;DHT22;42641;59.794;17.616;2023-06-14T12:35:56;32.20;51.10
56771;DHT22;42641;59.794;17.616;2023-06-14T12:38:25;31.80;51.60
56771;DHT22;42641;59.794;17.616;2023-06-14T12:40:51;31.50;51.80
56771;DHT22;42641;59.794;17.616;2023-06-14T12:43:18;31.00;52.40
56771;DHT22;42641;59.794;17.616;2023-06-14T12:45:45;30.70;55.00
56771;DHT22;42641;59.794;17.616;2023-06-14T12:48:11;30.40;54.20
56771;DHT22;42641;59.794;17.616;2023-06-14T12:50:38;30.30;54.30
56771;DHT22;42641;59.794;17.616;2023-06-14T12:53:04;30.10;55.00
56771;DHT22;42641;59.794;17.616;2023-06-14T12:55:30;30.10;54.60
56771;DHT22;42641;59.794;17.616;2023-06-14T12:57:57;30.20;54.40
56771;DHT22;42641;59.794;17.616;2023-06-14T13:00:23;30.30;54.60
56771;DHT22;42641;59.794;17.616;2023-06-14T13:02:52;30.40;54.70
56771;DHT22;42641;59.794;17.616;2023-06-14T13:05:19;30.70;53.40
56771;DHT22;42641;59.794;17.616;2023-06-14T13:07:45;32.10;52.20
56771;DHT22;42641;59.794;17.616;2023-06-14T13:10:12;33.40;49.90
56771;DHT22;42641;59.794;17.616;2023-06-14T13:12:38;34.80;49.20
56771;DHT22;42641;59.794;17.616;2023-06-14T13:15:05;35.90;48.20
56771;DHT22;42641;59.794;17.616;2023-06-14T13:17:34;36.10;47.50
56771;DHT22;42641;59.794;17.616;2023-06-14T13:20:06;35.30;48.40
56771;DHT22;42641;59.794;17.616;2023-06-14T13:22:36;35.30;49.20
56771;DHT22;42641;59.794;17.616;2023-06-14T13:25:03;35.50;46.90
56771;DHT22;42641;59.794;17.616;2023-06-14T13:27:30;35.20;46.60
56771;DHT22;42641;59.794;17.616;2023-06-14T13:29:56;34.80;48.60
56771;DHT22;42641;59.794;17.616;2023-06-14T13:32:23;34.40;47.70
56771;DHT22;42641;59.794;17.616;2023-06-14T13:34:50;33.60;49.10
56771;DHT22;42641;59.794;17.616;2023-06-14T13:37:17;32.90;50.50
56771;DHT22;42641;59.794;17.616;2023-06-14T13:39:43;32.20;50.30
56771;DHT22;42641;59.794;17.616;2023-06-14T13:42:09;31.90;51.00
56771;DHT22;42641;59.794;17.616;2023-06-14T13:44:36;31.50;50.50
56771;DHT22;42641;59.794;17.616;2023-06-14T13:47:04;31.50;52.60
56771;DHT22;42641;59.794;17.616;2023-06-14T13:49:31;31.30;52.20
56771;DHT22;42641;59.794;17.616;2023-06-14T13:51:57;31.10;52.40
56771;DHT22;42641;59.794;17.616;2023-06-14T13:54:24;30.90;52.50
56771;DHT22;42641;59.794;17.616;2023-06-14T13:56:50;30.90;52.70
56771;DHT22;42641;59.794;17.616;2023-06-14T13:59:17;30.80;52.40
56771;DHT22;42641;59.794;17.616;2023-06-14T14:01:43;30.60;53.30
56771;DHT22;42641;59.794;17.616;2023-06-14T14:04:10;30.70;52.60
56771;DHT22;42641;59.794;17.616;2023-06-14T14:06:37;30.60;51.70
56771;DHT22;42641;59.794;17.616;2023-06-14T14:09:03;30.50;52.80
56771;DHT22;42641;59.794;17.616;2023-06-14T14:11:30;30.50;53.00
56771;DHT22;42641;59.794;17.616;2023-06-14T14:13:59;30.70;53.00
56771;DHT22;42641;59.794;17.616;2023-06-14T14:16:26;31.00;52.90
56771;DHT22;42641;59.794;17.616;2023-06-14T14:18:52;31.70;54.00
56771;DHT22;42641;59.794;17.616;2023-06-14T14:21:19;32.90;52.00
56771;DHT22;42641;59.794;17.616;2023-06-14T14:23:45;33.70;50.00
56771;DHT22;42641;59.794;17.616;2023-06-14T14:26:12;34.60;48.00
56771;DHT22;42641;59.794;17.616;2023-06-14T14:28:38;35.60;48.50
56771;DHT22;42641;59.794;17.616;2023-06-14T14:31:05;35.60;46.90
56771;DHT22;42641;59.794;17.616;2023-06-14T14:33:31;35.60;47.20
56771;DHT22;42641;59.794;17.616;2023-06-14T14:35:57;34.90;46.90
56771;DHT22;42641;59.794;17.616;2023-06-14T14:38:25;34.40;47.50
56771;DHT22;42641;59.794;17.616;2023-06-14T14:40:52;33.80;48.30
56771;DHT22;42641;59.794;17.616;2023-06-14T14:43:19;33.50;48.50
56771;DHT22;42641;59.794;17.616;2023-06-14T14:45:45;33.00;48.60
56771;DHT22;42641;59.794;17.616;2023-06-14T14:48:11;32.50;50.00
56771;DHT22;42641;59.794;17.616;2023-06-14T14:50:38;32.20;52.10
56771;DHT22;42641;59.794;17.616;2023-06-14T14:53:05;31.90;51.50
56771;DHT22;42641;59.794;17.616;2023-06-14T14:55:32;31.60;55.30
56771;DHT22;42641;59.794;17.616;2023-06-14T14:58:02;31.20;55.30
56771;DHT22;42641;59.794;17.616;2023-06-14T15:00:29;31.20;55.40
56771;DHT22;42641;59.794;17.616;2023-06-14T15:02:55;31.00;54.60
56771;DHT22;42641;59.794;17.616;2023-06-14T15:05:22;30.70;54.90
56771;DHT22;42641;59.794;17.616;2023-06-14T15:07:48;30.70;55.50
56771;DHT22;42641;59.794;17.616;2023-06-14T15:10:15;30.80;55.50
56771;DHT22;42641;59.794;17.616;2023-06-14T15:12:41;30.60;54.00
56771;DHT22;42641;59.794;17.616;2023-06-14T15:15:08;31.40;55.10
56771;DHT22;42641;59.794;17.616;2023-06-14T15:17:35;32.40;51.20
56771;DHT22;42641;59.794;17.616;2023-06-14T15:20:02;33.40;51.50
56771;DHT22;42641;59.794;17.616;2023-06-14T15:22:30;34.40;50.80
56771;DHT22;42641;59.794;17.616;2023-06-14T15:24:57;35.10;50.10
56771;DHT22;42641;59.794;17.616;2023-06-14T15:27:23;35.20;49.70
56771;DHT22;42641;59.794;17.616;2023-06-14T15:29:50;34.80;50.50
56771;DHT22;42641;59.794;17.616;2023-06-14T15:32:17;34.60;52.20
56771;DHT22;42641;59.794;17.616;2023-06-14T15:34:43;35.00;49.60
56771;DHT22;42641;59.794;17.616;2023-06-14T15:37:10;35.00;50.10
56771;DHT22;42641;59.794;17.616;2023-06-14T15:39:36;34.80;49.20